Time;durP1;ratioP1;P1;durP2;ratioP2;P2;SDS_P1;SDS_P2;PMS_P1;PMS_P2;Temp;Humidity;BMP_temperature;BMP_pressure;BME280_temperature;BME280_humidity;BME280_pressure;Samples;Min_cycle;Max_cycle;Signal;HPM_P1;HPM_P2
2024/01/05 00:00:31;;;;;;;10.75;6.95;;;;;;;16.13;46.84;92522.53;5084096;28;20053;-91
2024/01/05 00:02:59;;;;;;;13.38;7.78;;;;;;;16.10;47.48;92518.13;5022582;28;20041;-92
2024/01/05 00:05:26;;;;;;;15.65;7.13;;;;;;;16.13;47.38;92521.81;5046990;28;20532;-90
2024/01/05 00:07:52;;;;;;;15.50;6.50;;;;;;;16.09;47.53;92513.91;5026182;28;20033;-91
2024/01/05 00:10:18;;;;;;;14.48;6.80;;;;;;;16.13;47.25;92513.63;4997607;28;20073;-93
2024/01/05 00:12:43;;;;;;;14.10;7.10;;;;;;;16.11;47.41;92517.59;5053243;28;20040;-91
2024/01/05 00:15:12;;;;;;;12.25;7.07;;;;;;;16.09;47.56;92505.75;5033417;28;20063;-91
2024/01/05 00:17:37;;;;;;;17.02;7.38;;;;;;;16.16;47.24;92515.31;5067224;28;20036;-93
2024/01/05 00:20:06;;;;;;;14.38;7.65;;;;;;;16.13;47.45;92517.09;5014894;28;20045;-92
2024/01/05 00:22:31;;;;;;;13.73;6.95;;;;;;;16.16;47.39;92518.03;5013893;28;20072;-91
2024/01/05 00:24:57;;;;;;;12.35;7.10;;;;;;;16.17;47.21;92517.53;5030671;28;20037;-92
2024/01/05 00:27:22;;;;;;;15.82;6.97;;;;;;;16.10;47.28;92509.94;5029844;28;20504;-91
2024/01/05 00:29:48;;;;;;;12.25;7.00;;;;;;;16.10;47.15;92515.38;5029223;28;20044;-91
2024/01/05 00:32:13;;;;;;;13.27;6.85;;;;;;;16.16;47.04;92518.78;5028949;28;20037;-93
2024/01/05 00:34:39;;;;;;;11.30;7.00;;;;;;;16.18;47.25;92508.09;5013659;28;20040;-92
2024/01/05 00:37:04;;;;;;;10.98;6.93;;;;;;;16.15;47.68;92498.22;5012809;28;20496;-91
2024/01/05 00:39:30;;;;;;;16.17;6.75;;;;;;;16.19;47.02;92506.09;5040011;28;20041;-91
2024/01/05 00:41:55;;;;;;;13.85;7.63;;;;;;;16.14;47.26;92506.91;5033638;28;20041;-92
2024/01/05 00:44:21;;;;;;;14.00;6.55;;;;;;;16.14;46.89;92504.94;5009364;28;20052;-91
2024/01/05 00:46:46;;;;;;;15.13;7.03;;;;;;;16.07;47.49;92506.25;5027005;28;20037;-92
2024/01/05 00:49:12;;;;;;;11.25;6.57;;;;;;;16.17;47.29;92514.81;5027324;28;20488;-90
2024/01/05 00:51:37;;;;;;;11.15;6.00;;;;;;;16.17;47.44;92511.34;5031101;28;20045;-91
2024/01/05 00:54:05;;;;;;;11.45;6.38;;;;;;;16.11;47.38;92506.69;5044664;28;20492;-91
2024/01/05 00:56:30;;;;;;;11.68;7.05;;;;;;;16.18;46.90;92518.25;5016396;28;20045;-91
2024/01/05 00:58:56;;;;;;;14.68;7.50;;;;;;;16.15;47.34;92519.28;5030922;28;20037;-91
2024/01/05 01:01:21;;;;;;;14.10;7.20;;;;;;;16.13;47.46;92511.63;5053850;28;20703;-91
2024/01/05 01:03:47;;;;;;;13.73;7.55;;;;;;;16.17;47.13;92512.06;5013558;28;20033;-92
2024/01/05 01:06:12;;;;;;;14.75;7.05;;;;;;;16.14;47.33;92517.81;5012415;28;20049;-91
2024/01/05 01:08:38;;;;;;;11.20;6.72;;;;;;;16.11;47.41;92512.16;5009810;28;20076;-92
2024/01/05 01:11:04;;;;;;;12.10;6.88;;;;;;;16.08;47.71;92524.09;5031959;28;20415;-91
2024/01/05 01:13:30;;;;;;;11.85;6.35;;;;;;;16.16;47.14;92515.31;5021982;28;20041;-92
2024/01/05 01:15:55;;;;;;;11.07;7.25;;;;;;;16.15;47.40;92519.28;5046758;28;20040;-91
2024/01/05 01:18:21;;;;;;;11.65;6.75;;;;;;;16.15;47.46;92511.13;5034591;28;20079;-91
2024/01/05 01:20:46;;;;;;;13.50;6.85;;;;;;;16.13;47.15;92514.34;5012272;28;20397;-91
2024/01/05 01:23:12;;;;;;;11.75;6.72;;;;;;;16.15;47.44;92502.94;5024424;28;20033;-93
2024/01/05 01:25:38;;;;;;;12.00;6.75;;;;;;;16.13;47.46;92502.72;5033252;28;20463;-92
2024/01/05 01:28:04;;;;;;;13.15;6.95;;;;;;;16.18;47.28;92499.19;5032774;28;20048;-91
2024/01/05 01:30:29;;;;;;;11.52;6.60;;;;;;;16.11;47.72;92493.06;5038381;28;20428;-91
2024/01/05 01:32:55;;;;;;;14.18;6.78;;;;;;;16.18;47.14;92491.00;5030826;28;20041;-92
2024/01/05 01:35:20;;;;;;;17.60;6.68;;;;;;;16.15;47.39;92492.75;5011903;28;20046;-90
2024/01/05 01:37:46;;;;;;;10.20;5.82;;;;;;;16.14;47.38;92482.38;5023451;28;20829;-91
2024/01/05 01:40:11;;;;;;;11.75;6.60;;;;;;;16.14;47.14;92485.09;5022207;28;20054;-93
2024/01/05 01:42:45;;;;;;;11.30;6.18;;;;;;;16.11;47.47;92476.69;5011868;28;20287;-92
2024/01/05 01:45:10;;;;;;;11.95;6.55;;;;;;;16.15;47.20;92478.41;5029657;28;20399;-93
2024/01/05 01:47:35;;;;;;;10.98;5.90;;;;;;;16.21;47.10;92473.59;5012251;28;20032;-90
2024/01/05 01:50:01;;;;;;;12.50;6.43;;;;;;;16.16;47.27;92477.88;5012580;28;20419;-91
2024/01/05 01:52:26;;;;;;;11.75;6.55;;;;;;;16.15;47.09;92479.13;5024604;28;20052;-92
2024/01/05 01:54:52;;;;;;;10.57;6.50;;;;;;;16.10;47.44;92480.69;5021121;28;20041;-92
2024/01/05 01:57:17;;;;;;;10.77;6.55;;;;;;;16.10;47.46;92485.41;5029087;28;20071;-91
2024/01/05 01:59:43;;;;;;;10.15;6.22;;;;;;;16.10;47.25;92475.22;5008964;28;20045;-91
2024/01/05 02:02:09;;;;;;;11.50;6.50;;;;;;;16.08;47.38;92477.00;5034604;28;20132;-91
2024/01/05 02:04:34;;;;;;;12.82;6.82;;;;;;;16.10;47.27;92472.50;5020923;28;20370;-90
2024/01/05 02:06:59;;;;;;;11.80;6.72;;;;;;;16.15;47.04;92478.41;5048646;28;20407;-92
2024/01/05 02:09:25;;;;;;;12.48;6.43;;;;;;;16.12;47.26;92472.00;5016948;28;20103;-91
2024/01/05 02:11:50;;;;;;;12.27;5.97;;;;;;;16.14;47.33;92464.03;5007055;28;20428;-91
2024/01/05 02:14:16;;;;;;;10.30;5.95;;;;;;;16.13;47.52;92472.72;5024778;28;20037;-91
2024/01/05 02:16:41;;;;;;;12.15;6.72;;;;;;;16.19;46.98;92470.66;5024705;28;20571;-91
2024/01/05 02:19:07;;;;;;;10.38;6.75;;;;;;;16.14;47.55;92464.03;5005175;28;20033;-92
2024/01/05 02:21:34;;;;;;;12.55;6.25;;;;;;;16.06;47.49;92461.16;5011413;28;20041;-92
2024/01/05 02:23:59;;;;;;;10.48;5.50;;;;;;;16.09;47.30;92454.69;5028354;28;20135;-92
2024/01/05 02:26:25;;;;;;;12.32;6.07;;;;;;;16.07;47.25;92459.16;5011078;28;20491;-91
2024/01/05 02:28:50;;;;;;;15.38;7.47;;;;;;;16.09;47.69;92459.38;5029337;28;20124;-92
2024/01/05 02:31:16;;;;;;;8.90;5.28;;;;;;;16.16;46.99;92456.06;5048076;28;20040;-92
2024/01/05 02:33:41;;;;;;;11.63;6.57;;;;;;;16.15;46.90;92451.88;5012128;28;20196;-90
2024/01/05 02:36:07;;;;;;;13.38;5.95;;;;;;;16.15;47.06;92459.31;5028215;28;20037;-91
2024/01/05 02:38:32;;;;;;;9.45;5.97;;;;;;;16.09;47.02;92454.69;5002585;28;20037;-92
2024/01/05 02:40:59;;;;;;;11.02;6.28;;;;;;;16.06;47.19;92452.97;5026144;28;20555;-91
2024/01/05 02:43:25;;;;;;;12.65;6.63;;;;;;;16.15;47.07;92459.31;5024196;28;20033;-91
2024/01/05 02:45:50;;;;;;;9.82;5.65;;;;;;;16.09;47.56;92453.94;5015615;28;20052;-93
2024/01/05 02:48:16;;;;;;;12.27;5.82;;;;;;;16.07;47.29;92456.44;5012797;28;20067;-92
2024/01/05 02:50:41;;;;;;;11.05;6.72;;;;;;;16.16;47.43;92453.34;5008340;28;20037;-92
2024/01/05 02:53:06;;;;;;;10.85;5.85;;;;;;;16.15;47.10;92462.03;5026470;28;20037;-91
2024/01/05 02:55:32;;;;;;;10.60;5.85;;;;;;;16.14;47.07;92455.84;5011877;28;20045;-91
2024/01/05 02:57:57;;;;;;;12.80;6.03;;;;;;;16.15;47.05;92457.31;5018402;28;20033;-92
2024/01/05 03:00:23;;;;;;;10.95;6.43;;;;;;;16.11;47.05;92457.63;5029685;28;20041;-92
2024/01/05 03:02:48;;;;;;;12.48;6.35;;;;;;;16.16;47.30;92456.06;5012839;28;20100;-92
2024/01/05 03:05:13;;;;;;;21.27;7.43;;;;;;;16.15;46.90;92445.69;5048598;28;20707;-91
2024/01/05 03:07:40;;;;;;;11.63;6.40;;;;;;;16.12;46.99;92447.44;5014530;28;20037;-92
2024/01/05 03:10:07;;;;;;;10.23;5.35;;;;;;;16.18;46.97;92441.91;5032946;28;20087;-91
2024/01/05 03:12:32;;;;;;;8.93;5.68;;;;;;;16.12;47.05;92447.44;5029852;28;20435;-92
2024/01/05 03:14:58;;;;;;;10.27;5.85;;;;;;;16.12;47.18;92444.72;5035601;28;20630;-92
2024/01/05 03:17:23;;;;;;;12.43;5.80;;;;;;;16.14;47.00;92428.59;5050007;28;20044;-92
2024/01/05 03:19:49;;;;;;;12.00;5.88;;;;;;;16.09;47.19;92430.13;5021730;28;20045;-92
2024/01/05 03:22:14;;;;;;;13.27;6.03;;;;;;;16.09;47.30;92418.50;5030579;28;20075;-91
2024/01/05 03:24:40;;;;;;;10.65;6.10;;;;;;;16.15;47.29;92421.88;5014490;28;20112;-91
2024/01/05 03:27:05;;;;;;;10.68;5.78;;;;;;;16.15;47.18;92418.41;5031241;28;20037;-91
2024/01/05 03:29:31;;;;;;;9.77;6.38;;;;;;;16.15;47.07;92413.69;5036055;28;20037;-91
2024/01/05 03:31:56;;;;;;;13.27;6.20;;;;;;;16.13;47.05;92399.84;5041755;28;20055;-92
2024/01/05 03:34:22;;;;;;;9.15;5.35;;;;;;;16.09;47.28;92400.16;5047319;28;20054;-92
2024/01/05 03:36:47;;;;;;;9.10;5.65;;;;;;;16.09;47.16;92391.97;5018404;28;20052;-92
2024/01/05 03:39:12;;;;;;;9.63;5.90;;;;;;;16.13;47.27;92396.38;5017606;28;20118;-91
2024/01/05 03:41:38;;;;;;;9.57;6.28;;;;;;;16.10;47.27;92392.72;5046060;28;20044;-93
2024/01/05 03:44:04;;;;;;;13.15;7.07;;;;;;;16.10;47.08;92390.72;5020982;28;20041;-92
2024/01/05 03:46:29;;;;;;;9.07;5.47;;;;;;;16.15;47.07;92386.44;5023035;28;20083;-91
2024/01/05 03:48:55;;;;;;;8.70;5.45;;;;;;;16.03;47.39;92379.69;5049585;28;20048;-91
2024/01/05 03:51:20;;;;;;;9.27;5.18;;;;;;;16.08;47.20;92365.97;5025328;28;20048;-91
2024/01/05 03:53:45;;;;;;;13.52;7.45;;;;;;;16.06;47.30;92365.75;5028413;28;20041;-93
2024/01/05 03:56:12;;;;;;;10.18;5.95;;;;;;;16.06;47.11;92368.47;5033480;28;20413;-90
2024/01/05 03:58:40;;;;;;;12.65;6.25;;;;;;;16.09;47.15;92369.44;5030469;28;21022;-91
2024/01/05 04:01:06;;;;;;;10.13;6.30;;;;;;;16.10;47.35;92371.63;4998727;28;20041;-91
2024/01/05 04:03:31;;;;;;;10.82;6.20;;;;;;;16.10;47.04;92379.81;5031174;28;20502;-91
2024/01/05 04:05:57;;;;;;;10.68;6.00;;;;;;;16.11;47.26;92370.38;5030639;28;20415;-92
2024/01/05 04:08:22;;;;;;;10.98;5.53;;;;;;;16.08;47.10;92371.41;5029680;28;20095;-91
2024/01/05 04:10:49;;;;;;;11.55;6.43;;;;;;;16.12;47.01;92360.22;5030223;28;20140;-91
2024/01/05 04:13:14;;;;;;;12.18;6.18;;;;;;;16.07;46.87;92353.59;5043629;28;20123;-91
2024/01/05 04:15:40;;;;;;;10.38;5.50;;;;;;;16.06;47.38;92351.38;5038205;28;20056;-92
2024/01/05 04:18:05;;;;;;;8.95;5.72;;;;;;;16.02;47.20;92337.34;5030736;28;20051;-92
2024/01/05 04:20:32;;;;;;;7.78;5.20;;;;;;;16.10;47.03;92340.91;5055588;28;20431;-92
2024/01/05 04:22:57;;;;;;;11.70;5.90;;;;;;;16.12;47.24;92327.50;5029467;28;20032;-92
2024/01/05 04:25:23;;;;;;;9.93;5.60;;;;;;;16.10;47.26;92332.72;5038690;28;20364;-91
2024/01/05 04:27:48;;;;;;;11.00;5.70;;;;;;;16.13;46.95;92328.97;5031409;28;20036;-92
2024/01/05 04:30:15;;;;;;;9.95;5.60;;;;;;;16.10;46.89;92321.81;5031815;28;20042;-91
2024/01/05 04:32:40;;;;;;;10.43;5.97;;;;;;;16.12;46.78;92313.88;5004655;28;20090;-92
2024/01/05 04:35:06;;;;;;;11.07;5.78;;;;;;;16.04;47.09;92310.28;5013139;28;20042;-91
2024/01/05 04:37:31;;;;;;;9.80;5.32;;;;;;;16.06;46.88;92313.94;5025871;28;20040;-90
2024/01/05 04:39:56;;;;;;;9.20;5.10;;;;;;;16.09;47.31;92304.00;5035095;28;20049;-91
2024/01/05 04:42:22;;;;;;;10.32;5.85;;;;;;;16.14;47.32;92295.00;5028849;28;20081;-93
2024/01/05 04:44:49;;;;;;;13.50;5.22;;;;;;;16.08;47.31;92289.63;5024136;28;20037;-92
2024/01/05 04:47:15;;;;;;;10.23;5.35;;;;;;;16.07;46.88;92292.88;5009095;28;20073;-93
2024/01/05 04:49:41;;;;;;;10.27;5.47;;;;;;;16.09;46.97;92290.38;5038534;28;20032;-92
2024/01/05 04:52:06;;;;;;;11.68;5.85;;;;;;;16.08;47.31;92297.06;5040072;28;20045;-91
2024/01/05 04:54:31;;;;;;;12.00;6.63;;;;;;;16.14;46.99;92302.44;5065990;28;20044;-91
2024/01/05 04:56:58;;;;;;;10.63;6.43;;;;;;;16.11;47.00;92301.47;5037255;28;20052;-92
2024/01/05 04:59:24;;;;;;;10.38;6.15;;;;;;;16.11;47.17;92309.66;5016567;28;20082;-91
2024/01/05 05:01:50;;;;;;;14.68;7.10;;;;;;;16.05;47.61;92306.28;5037443;28;20033;-91
2024/01/05 05:04:17;;;;;;;13.00;7.43;;;;;;;16.06;47.16;92307.75;5031377;28;20296;-92
2024/01/05 05:06:43;;;;;;;9.00;5.95;;;;;;;16.09;47.08;92304.72;5039190;28;20120;-91
2024/01/05 05:09:09;;;;;;;9.75;5.75;;;;;;;16.09;47.55;92306.72;5042319;28;20048;-91
2024/01/05 05:11:35;;;;;;;10.10;7.22;;;;;;;16.06;47.11;92286.69;5049522;28;20036;-92
2024/01/05 05:14:00;;;;;;;12.05;6.78;;;;;;;16.07;47.30;92276.53;5029671;28;20094;-91
2024/01/05 05:16:25;;;;;;;9.10;5.60;;;;;;;16.02;47.58;92278.09;5015529;28;20044;-92
2024/01/05 05:18:53;;;;;;;11.02;7.32;;;;;;;16.07;47.28;92274.53;5065674;28;20044;-93
2024/01/05 05:21:18;;;;;;;10.55;6.35;;;;;;;16.14;47.00;92272.44;5018790;28;20095;-92
2024/01/05 05:23:44;;;;;;;11.80;5.90;;;;;;;16.10;47.30;92256.41;4995316;28;20033;-90
2024/01/05 05:26:09;;;;;;;12.35;7.85;;;;;;;16.14;47.08;92262.28;5025334;28;20048;-91
2024/01/05 05:28:35;;;;;;;11.02;5.90;;;;;;;16.08;47.28;92253.47;5039156;28;20543;-93
2024/01/05 05:31:00;;;;;;;14.23;6.15;;;;;;;16.11;46.95;92247.69;5024709;28;20041;-93
2024/01/05 05:33:26;;;;;;;9.02;5.43;;;;;;;16.10;46.85;92250.94;5027124;28;20037;-93
2024/01/05 05:35:51;;;;;;;11.10;6.03;;;;;;;16.09;47.22;92254.94;5014527;28;20488;-92
2024/01/05 05:38:16;;;;;;;10.63;6.13;;;;;;;16.12;47.21;92251.16;5011193;28;20041;-91
2024/01/05 05:40:42;;;;;;;11.57;6.65;;;;;;;16.10;47.07;92256.41;5034013;28;20048;-91
2024/01/05 05:43:07;;;;;;;13.13;6.72;;;;;;;16.11;47.13;92257.88;5024530;28;20036;-92
2024/01/05 05:45:35;;;;;;;11.38;5.97;;;;;;;16.06;47.01;92259.44;5046993;28;20040;-92
2024/01/05 05:48:00;;;;;;;9.50;6.05;;;;;;;16.06;47.11;92259.44;5029742;28;20041;-92
2024/01/05 05:50:26;;;;;;;11.50;6.68;;;;;;;16.03;47.01;92257.00;5028437;28;20044;-91
2024/01/05 05:52:51;;;;;;;10.93;5.90;;;;;;;16.05;47.26;92262.69;5012135;28;20504;-93
2024/01/05 05:55:17;;;;;;;10.52;6.50;;;;;;;16.08;47.18;92256.19;5026437;28;20041;-92
2024/01/05 05:57:43;;;;;;;12.68;6.70;;;;;;;16.08;47.10;92240.56;5010389;28;20566;-91
2024/01/05 06:00:08;;;;;;;12.18;5.93;;;;;;;16.08;47.21;92251.47;5027582;28;20392;-92
2024/01/05 06:02:36;;;;;;;11.80;6.80;;;;;;;16.11;47.10;92252.41;5015019;28;20048;-93
2024/01/05 06:05:01;;;;;;;13.13;7.43;;;;;;;16.13;47.02;92257.34;5020555;28;20041;-93
2024/01/05 06:07:26;;;;;;;13.18;5.97;;;;;;;16.10;47.00;92256.41;5005905;28;21154;-92
2024/01/05 06:09:53;;;;;;;11.45;6.07;;;;;;;16.08;46.96;92259.66;5011910;28;20444;-91
2024/01/05 06:12:18;;;;;;;11.95;6.35;;;;;;;16.10;47.26;92262.59;5008262;28;20041;-93
2024/01/05 06:14:45;;;;;;;11.20;6.22;;;;;;;16.08;47.25;92245.28;5022354;28;20040;-92
2024/01/05 06:17:10;;;;;;;10.32;6.00;;;;;;;16.08;47.21;92262.38;5030553;28;20131;-92
2024/01/05 06:19:36;;;;;;;10.10;6.32;;;;;;;16.08;47.29;92264.34;5062758;28;20328;-92
2024/01/05 06:22:02;;;;;;;11.57;6.65;;;;;;;16.09;47.13;92261.13;5021358;28;20067;-93
2024/01/05 06:24:29;;;;;;;11.73;6.60;;;;;;;16.06;47.23;92255.97;5047042;28;20101;-91
2024/01/05 06:26:54;;;;;;;11.30;7.10;;;;;;;16.07;46.76;92252.00;5027346;28;20039;-92
2024/01/05 06:29:22;;;;;;;11.05;6.13;;;;;;;16.07;47.17;92260.91;5025682;28;20033;-95
2024/01/05 06:31:47;;;;;;;11.10;6.13;;;;;;;16.01;47.12;92248.66;5008838;28;20068;-92
2024/01/05 06:34:13;;;;;;;8.77;6.32;;;;;;;16.12;47.00;92259.34;5025438;28;20446;-91
2024/01/05 06:36:38;;;;;;;10.77;6.45;;;;;;;16.11;47.05;92250.41;4996096;28;20049;-91
2024/01/05 06:39:03;;;;;;;11.38;6.28;;;;;;;16.09;47.11;92249.47;5033755;28;20044;-92
2024/01/05 06:41:30;;;;;;;11.30;6.05;;;;;;;16.10;46.94;92232.59;5019177;28;20044;-92
2024/01/05 06:43:55;;;;;;;12.10;6.53;;;;;;;16.11;46.81;92227.88;5015381;28;20369;-95
2024/01/05 06:46:21;;;;;;;11.00;5.60;;;;;;;16.16;46.71;92220.84;5044075;28;20044;-90
2024/01/05 06:48:46;;;;;;;9.07;5.43;;;;;;;16.06;47.44;92234.16;5009976;28;20045;-90
2024/01/05 06:51:12;;;;;;;10.88;6.07;;;;;;;16.08;46.88;92226.94;5024736;28;20123;-92
2024/01/05 06:53:37;;;;;;;10.45;6.00;;;;;;;16.07;47.37;92225.47;5019821;28;20077;-89
2024/01/05 06:56:03;;;;;;;10.27;5.38;;;;;;;16.05;46.90;92219.06;5027620;28;20045;-93
2024/01/05 06:58:29;;;;;;;10.57;6.07;;;;;;;16.03;47.26;92227.75;5010731;28;20064;-94
2024/01/05 07:00:54;;;;;;;10.32;6.15;;;;;;;16.02;47.41;92218.13;5034168;28;20040;-94
2024/01/05 07:03:20;;;;;;;10.63;6.18;;;;;;;16.05;46.98;92206.16;5022584;28;20094;-93
2024/01/05 07:05:46;;;;;;;10.00;6.05;;;;;;;16.05;47.02;92219.78;5033595;28;20053;-92
2024/01/05 07:08:11;;;;;;;10.27;5.93;;;;;;;16.09;47.06;92222.22;5019060;28;20064;-93
2024/01/05 07:10:37;;;;;;;11.90;5.55;;;;;;;16.05;47.32;92227.97;5028756;28;20049;-93
2024/01/05 07:13:05;;;;;;;10.38;5.20;;;;;;;16.01;47.21;92219.41;5025229;28;20052;-94
2024/01/05 07:15:31;;;;;;;10.10;5.05;;;;;;;16.00;47.26;92219.91;5016746;28;20056;-94
2024/01/05 07:17:57;;;;;;;9.43;5.95;;;;;;;15.99;47.27;92216.47;5044214;28;20033;-93
2024/01/05 07:20:22;;;;;;;11.40;5.80;;;;;;;16.04;46.77;92218.31;5044416;28;20056;-92
2024/01/05 07:22:47;;;;;;;8.73;5.22;;;;;;;16.09;46.69;92214.78;5015979;28;20033;-94
2024/01/05 07:25:15;;;;;;;10.07;5.15;;;;;;;16.08;46.75;92221.47;5019468;28;20104;-92
2024/01/05 07:27:40;;;;;;;10.27;5.57;;;;;;;16.12;46.55;92218.44;5016699;28;20045;-94
2024/01/05 07:30:06;;;;;;;9.90;5.68;;;;;;;16.11;46.38;92222.44;5001114;28;20041;-94
2024/01/05 07:32:32;;;;;;;11.95;6.28;;;;;;;16.07;47.09;92222.00;5027841;28;20052;-93
2024/01/05 07:34:57;;;;;;;10.27;5.60;;;;;;;16.11;46.54;92214.97;4999867;28;20041;-91
2024/01/05 07:37:23;;;;;;;10.25;6.05;;;;;;;16.14;47.05;92215.19;5035701;28;20067;-93
2024/01/05 07:39:51;;;;;;;8.27;5.35;;;;;;;16.10;46.56;92207.31;5013689;28;20067;-91
2024/01/05 07:42:17;;;;;;;9.13;5.60;;;;;;;16.06;46.85;92217.81;5026947;28;20043;-90
2024/01/05 07:44:42;;;;;;;7.90;5.22;;;;;;;16.05;47.03;92216.34;5015345;28;20079;-91
2024/01/05 07:47:09;;;;;;;7.32;5.20;;;;;;;16.11;46.56;92208.78;5000146;28;20116;-92
2024/01/05 07:49:35;;;;;;;12.10;5.75;;;;;;;16.08;47.16;92205.13;5019552;28;20077;-93
2024/01/05 07:52:00;;;;;;;10.48;5.88;;;;;;;16.15;46.71;92198.31;5013993;28;20533;-91
2024/01/05 07:54:26;;;;;;;9.10;5.30;;;;;;;16.03;46.08;92208.69;5023962;28;20045;-92
2024/01/05 07:56:51;;;;;;;11.07;5.28;;;;;;;15.99;44.80;92210.28;5016488;28;20094;-92
2024/01/05 07:59:16;;;;;;;13.52;5.80;;;;;;;16.01;45.70;92213.94;5018493;28;20393;-93
2024/01/05 08:01:42;;;;;;;11.20;5.68;;;;;;;15.96;46.04;92209.31;5010646;28;20037;-92
2024/01/05 08:04:08;;;;;;;9.07;4.82;;;;;;;15.99;45.96;92200.09;5014285;28;20041;-92
2024/01/05 08:06:33;;;;;;;9.82;5.93;;;;;;;16.00;46.38;92200.84;5010641;28;20095;-92
2024/01/05 08:08:59;;;;;;;12.32;6.43;;;;;;;16.09;46.08;92195.69;5013777;28;20063;-92
2024/01/05 08:11:24;;;;;;;10.13;5.70;;;;;;;16.11;46.65;92193.19;5015143;28;20045;-92
2024/01/05 08:13:51;;;;;;;14.43;6.85;;;;;;;16.10;46.54;92191.69;5023577;28;20040;-92
2024/01/05 08:16:17;;;;;;;12.15;5.47;;;;;;;16.01;47.05;92192.16;5031062;28;20037;-92
2024/01/05 08:18:42;;;;;;;10.40;6.47;;;;;;;16.09;46.59;92184.78;5012964;28;20052;-92
2024/01/05 08:21:09;;;;;;;9.23;6.28;;;;;;;16.10;46.49;92186.25;5037030;28;20132;-91
2024/01/05 08:23:35;;;;;;;9.25;4.65;;;;;;;16.07;46.58;92192.75;5026880;28;20043;-92
2024/01/05 08:26:00;;;;;;;9.48;5.70;;;;;;;16.07;46.26;92195.47;5011305;28;20113;-92
2024/01/05 08:28:26;;;;;;;11.00;5.55;;;;;;;16.07;46.40;92194.75;5016384;28;20063;-92
2024/01/05 08:30:51;;;;;;;11.52;5.65;;;;;;;16.04;46.58;92188.34;5023462;28;20045;-92
2024/01/05 08:33:17;;;;;;;12.65;6.00;;;;;;;16.09;46.61;92195.69;5022667;28;20041;-92
2024/01/05 08:35:42;;;;;;;10.70;6.30;;;;;;;16.09;46.69;92197.69;5028249;28;20048;-92
2024/01/05 08:38:08;;;;;;;9.10;5.70;;;;;;;16.10;46.47;92201.88;5030088;28;20037;-92
2024/01/05 08:40:34;;;;;;;11.02;5.53;;;;;;;16.12;46.60;92193.91;5007959;28;20072;-93
2024/01/05 08:42:59;;;;;;;8.20;5.07;;;;;;;16.10;46.32;92201.88;5017975;28;20026;-92
2024/01/05 08:45:27;;;;;;;10.10;5.70;;;;;;;16.08;46.33;92198.94;4998688;28;20053;-92
2024/01/05 08:47:52;;;;;;;18.42;6.68;;;;;;;16.09;46.78;92190.25;5004074;28;20575;-92
2024/01/05 08:50:18;;;;;;;17.85;6.60;;;;;;;16.06;46.51;92191.28;5027610;28;20052;-92
2024/01/05 08:52:44;;;;;;;10.30;5.18;;;;;;;16.10;46.34;92204.59;5027828;28;20037;-92
2024/01/05 08:55:11;;;;;;;12.70;6.53;;;;;;;16.15;46.85;92198.31;5027200;28;20091;-93
2024/01/05 08:57:36;;;;;;;8.35;3.53;;;;;;;15.90;44.18;92199.78;4996871;28;20041;-92
2024/01/05 09:00:02;;;;;;;7.28;4.07;;;;;;;15.82;44.22;92199.66;5013717;28;20051;-91
2024/01/05 09:02:28;;;;;;;9.88;4.15;;;;;;;15.93;44.69;92183.13;5017389;28;20504;-92
2024/01/05 09:04:54;;;;;;;9.57;4.35;;;;;;;15.95;45.04;92186.06;5010833;28;20524;-92
2024/01/05 09:07:22;;;;;;;11.30;5.53;;;;;;;15.95;45.79;92182.59;5010062;28;20045;-92
2024/01/05 09:09:48;;;;;;;7.38;4.65;;;;;;;15.96;45.70;92187.53;5031835;28;20036;-93
2024/01/05 09:12:13;;;;;;;12.65;6.43;;;;;;;15.92;45.62;92187.09;5013927;28;20053;-93
2024/01/05 09:14:39;;;;;;;33.90;7.47;;;;;;;15.81;43.97;92183.81;5030794;28;20077;-92
2024/01/05 09:17:05;;;;;;;43.50;7.28;;;;;;;15.69;43.01;92189.50;5011565;28;20044;-92
2024/01/05 09:19:32;;;;;;;40.72;9.00;;;;;;;15.75;43.29;92194.84;5029539;28;20124;-93
2024/01/05 09:21:59;;;;;;;32.15;7.20;;;;;;;15.88;43.10;92200.31;5020576;28;20047;-93
2024/01/05 09:24:25;;;;;;;31.88;7.28;;;;;;;15.87;43.92;92204.28;5017256;28;20123;-93
2024/01/05 09:26:50;;;;;;;26.30;5.95;;;;;;;15.92;44.73;92208.91;5035482;28;20075;-93
2024/01/05 09:29:15;;;;;;;22.75;6.15;;;;;;;15.95;45.25;92210.59;5031351;28;20044;-92
2024/01/05 09:31:46;;;;;;;12.10;5.35;;;;;;;15.89;45.16;92199.03;5050167;28;20495;-92
2024/01/05 09:34:11;;;;;;;10.45;3.83;;;;;;;15.81;43.97;92189.28;5045861;28;20037;-93
2024/01/05 09:36:42;;;;;;;7.63;3.40;;;;;;;15.69;43.89;92202.38;5026165;28;20462;-92
2024/01/05 09:39:09;;;;;;;10.85;3.20;;;;;;;15.74;43.47;92191.41;5037596;28;20101;-92
2024/01/05 09:41:34;;;;;;;28.63;4.25;;;;;;;15.78;43.48;92193.81;5025644;28;20099;-92
2024/01/05 09:44:00;;;;;;;11.63;4.32;;;;;;;15.88;44.35;92205.00;5032641;28;20112;-93
2024/01/05 09:46:28;;;;;;;14.82;5.28;;;;;;;15.84;44.42;92197.16;5012780;28;20033;-92
2024/01/05 09:49:03;;;;;;;11.93;4.18;;;;;;;15.76;43.19;92188.16;5021551;28;20072;-93
2024/01/05 09:51:29;;;;;;;8.43;2.97;;;;;;;15.66;42.71;92182.38;5038025;28;20041;-93
2024/01/05 09:53:54;;;;;;;9.73;3.45;;;;;;;15.60;42.45;92186.44;5033756;28;20053;-92
2024/01/05 09:56:20;;;;;;;6.25;2.50;;;;;;;15.60;42.37;92187.16;4999667;28;20040;-93
2024/01/05 09:58:46;;;;;;;5.93;1.98;;;;;;;15.44;42.43;92182.72;5011815;28;20509;-92
2024/01/05 10:01:19;;;;;;;12.18;1.92;;;;;;;15.49;42.26;92186.59;5011943;28;20037;-94
2024/01/05 10:03:45;;;;;;;15.63;2.00;;;;;;;15.38;41.83;92179.34;5010256;28;20234;-93
2024/01/05 10:06:15;;;;;;;15.23;2.92;;;;;;;15.39;41.52;92170.66;5033737;28;20063;-93
2024/01/05 10:08:40;;;;;;;22.33;3.08;;;;;;;15.30;41.95;92167.63;5026879;28;20044;-94
2024/01/05 10:11:07;;;;;;;17.60;2.92;;;;;;;15.40;41.48;92171.41;5006162;28;20103;-93
2024/01/05 10:13:32;;;;;;;13.68;2.75;;;;;;;15.46;41.36;92166.59;5016894;28;20048;-93
2024/01/05 10:16:02;;;;;;;8.57;2.47;;;;;;;15.47;42.35;92170.06;5029835;28;20036;-94
2024/01/05 10:18:29;;;;;;;12.93;3.63;;;;;;;15.56;42.48;92164.25;5030594;28;20052;-92
2024/01/05 10:20:55;;;;;;;7.32;3.20;;;;;;;15.64;42.59;92167.78;5046841;28;20313;-94
2024/01/05 10:23:21;;;;;;;9.68;3.30;;;;;;;15.68;42.58;92157.31;5019037;28;20053;-93
2024/01/05 10:25:47;;;;;;;11.95;3.65;;;;;;;15.66;43.55;92165.28;5034741;28;20041;-93
2024/01/05 10:28:23;;;;;;;12.95;3.85;;;;;;;15.67;43.46;92151.13;5026332;28;20060;-93
2024/01/05 10:30:48;;;;;;;9.20;4.78;;;;;;;15.74;44.07;92144.34;5029992;28;20037;-93
2024/01/05 10:33:16;;;;;;;11.18;4.05;;;;;;;15.75;44.00;92149.28;5008844;28;20037;-94
2024/01/05 10:35:41;;;;;;;11.23;3.72;;;;;;;15.78;44.11;92144.75;5027060;28;20033;-93
2024/01/05 10:38:09;;;;;;;8.00;4.38;;;;;;;15.77;44.02;92137.84;5018997;28;20037;-93
2024/01/05 10:40:34;;;;;;;8.88;4.40;;;;;;;15.78;43.55;92136.59;5005552;28;20037;-92
2024/01/05 10:43:11;;;;;;;6.20;3.42;;;;;;;15.75;43.80;92137.63;5018217;28;20079;-93
2024/01/05 10:45:39;;;;;;;30.98;4.50;;;;;;;15.73;42.89;92138.16;5030748;28;20040;-91
2024/01/05 10:48:05;;;;;;;49.53;5.68;;;;;;;15.68;42.89;92127.34;5023477;28;20069;-92
2024/01/05 10:50:33;;;;;;;47.17;6.20;;;;;;;15.68;43.14;92136.25;5047763;28;20491;-92
2024/01/05 10:53:00;;;;;;;29.88;4.38;;;;;;;15.77;42.83;92144.03;5048713;28;20082;-92
2024/01/05 10:55:25;;;;;;;20.15;3.33;;;;;;;15.68;42.61;92139.00;5008117;28;20049;-95
2024/01/05 10:57:51;;;;;;;8.82;3.33;;;;;;;15.62;41.95;92132.16;5034780;28;20059;-96
2024/01/05 11:00:16;;;;;;;5.57;2.55;;;;;;;15.54;41.65;92131.31;5025153;28;20038;-93
2024/01/05 11:02:42;;;;;;;4.35;2.15;;;;;;;15.52;41.68;92133.81;5039832;28;20043;-92
2024/01/05 11:05:08;;;;;;;11.75;2.58;;;;;;;15.55;41.46;92132.78;5011702;28;20148;-93
2024/01/05 11:07:34;;;;;;;18.67;4.65;;;;;;;15.66;41.85;92130.59;5028768;28;20041;-94
2024/01/05 11:10:27;;;;;;;13.32;3.80;;;;;;;15.59;42.24;92120.31;5015993;28;20560;-93
2024/01/05 11:13:09;;;;;;;9.98;2.97;;;;;;;15.53;42.09;92116.22;5056646;28;20060;-93
2024/01/05 11:16:02;;;;;;;9.45;2.25;;;;;;;15.49;42.15;92116.53;5038057;28;20041;-93
2024/01/05 11:18:52;;;;;;;8.93;2.40;;;;;;;15.61;41.92;92106.19;5064308;28;21410;-92
2024/01/05 11:21:23;;;;;;;11.10;4.20;;;;;;;15.63;42.17;92106.41;5071075;28;20040;-94